sensor_id;sensor_type;location;lat;lon;timestamp;temperature;humidity
8188;DHT22;4135;49.184;9.722;2023-02-15T00:00:31;21.30;46.10
8188;DHT22;4135;49.184;9.722;2023-02-15T00:03:01;21.30;46.00
8188;DHT22;4135;49.184;9.722;2023-02-15T00:05:31;21.20;46.00
8188;DHT22;4135;49.184;9.722;2023-02-15T00:08:00;21.20;45.90
8188;DHT22;4135;49.184;9.722;2023-02-15T00:10:30;21.30;46.00
8188;DHT22;4135;49.184;9.722;2023-02-15T00:13:00;21.20;45.90
8188;DHT22;4135;49.184;9.722;2023-02-15T00:15:29;21.20;45.90
8188;DHT22;4135;49.184;9.722;2023-02-15T00:17:59;21.20;45.90
8188;DHT22;4135;49.184;9.722;2023-02-15T00:20:28;21.20;46.00
8188;DHT22;4135;49.184;9.722;2023-02-15T00:22:58;21.20;46.00
8188;DHT22;4135;49.184;9.722;2023-02-15T00:25:28;21.20;45.90
8188;DHT22;4135;49.184;9.722;2023-02-15T00:27:59;21.20;45.90
8188;DHT22;4135;49.184;9.722;2023-02-15T00:30:29;21.20;45.90
8188;DHT22;4135;49.184;9.722;2023-02-15T00:32:58;21.20;45.90
8188;DHT22;4135;49.184;9.722;2023-02-15T00:35:28;21.20;45.90
8188;DHT22;4135;49.184;9.722;2023-02-15T00:37:57;21.20;45.90
8188;DHT22;4135;49.184;9.722;2023-02-15T00:40:27;21.20;45.90
8188;DHT22;4135;49.184;9.722;2023-02-15T00:42:56;21.20;45.80
8188;DHT22;4135;49.184;9.722;2023-02-15T00:45:27;21.20;45.80
8188;DHT22;4135;49.184;9.722;2023-02-15T00:47:57;21.20;45.80
8188;DHT22;4135;49.184;9.722;2023-02-15T00:50:26;21.20;45.90
8188;DHT22;4135;49.184;9.722;2023-02-15T00:52:56;21.20;45.90
8188;DHT22;4135;49.184;9.722;2023-02-15T00:55:25;21.20;45.80
8188;DHT22;4135;49.184;9.722;2023-02-15T00:57:55;21.10;45.80
8188;DHT22;4135;49.184;9.722;2023-02-15T01:00:24;21.10;45.70
8188;DHT22;4135;49.184;9.722;2023-02-15T01:02:54;21.10;45.80
8188;DHT22;4135;49.184;9.722;2023-02-15T01:05:23;21.10;45.70
8188;DHT22;4135;49.184;9.722;2023-02-15T01:07:53;21.20;45.80
8188;DHT22;4135;49.184;9.722;2023-02-15T01:10:23;21.20;45.80
8188;DHT22;4135;49.184;9.722;2023-02-15T01:12:54;21.10;45.70
8188;DHT22;4135;49.184;9.722;2023-02-15T01:15:24;21.10;45.70
8188;DHT22;4135;49.184;9.722;2023-02-15T01:17:54;21.10;45.70
8188;DHT22;4135;49.184;9.722;2023-02-15T01:20:25;21.10;45.70
8188;DHT22;4135;49.184;9.722;2023-02-15T01:22:56;21.10;45.70
8188;DHT22;4135;49.184;9.722;2023-02-15T01:25:26;21.10;45.70
8188;DHT22;4135;49.184;9.722;2023-02-15T01:27:55;21.10;45.70
8188;DHT22;4135;49.184;9.722;2023-02-15T01:30:25;21.10;46.00
8188;DHT22;4135;49.184;9.722;2023-02-15T01:32:55;21.10;45.70
8188;DHT22;4135;49.184;9.722;2023-02-15T01:35:25;21.10;45.60
8188;DHT22;4135;49.184;9.722;2023-02-15T01:37:55;21.10;45.60
8188;DHT22;4135;49.184;9.722;2023-02-15T01:40:25;21.10;45.60
8188;DHT22;4135;49.184;9.722;2023-02-15T01:42:55;21.10;45.60
8188;DHT22;4135;49.184;9.722;2023-02-15T01:45:28;21.10;45.60
8188;DHT22;4135;49.184;9.722;2023-02-15T01:50:56;21.10;45.60
8188;DHT22;4135;49.184;9.722;2023-02-15T01:53:40;21.10;45.60
8188;DHT22;4135;49.184;9.722;2023-02-15T01:56:15;21.10;45.60
8188;DHT22;4135;49.184;9.722;2023-02-15T01:58:46;21.10;45.60
8188;DHT22;4135;49.184;9.722;2023-02-15T02:01:17;21.10;45.60
8188;DHT22;4135;49.184;9.722;2023-02-15T02:04:23;21.10;45.60
8188;DHT22;4135;49.184;9.722;2023-02-15T02:06:54;21.10;45.60
8188;DHT22;4135;49.184;9.722;2023-02-15T02:09:23;21.10;45.60
8188;DHT22;4135;49.184;9.722;2023-02-15T02:11:54;21.10;45.60
8188;DHT22;4135;49.184;9.722;2023-02-15T02:14:24;21.10;45.60
8188;DHT22;4135;49.184;9.722;2023-02-15T02:16:57;21.10;45.60
8188;DHT22;4135;49.184;9.722;2023-02-15T02:33:50;21.10;45.60
8188;DHT22;4135;49.184;9.722;2023-02-15T02:36:37;21.10;45.60
8188;DHT22;4135;49.184;9.722;2023-02-15T02:39:12;21.10;45.60
8188;DHT22;4135;49.184;9.722;2023-02-15T02:41:58;21.00;45.50
8188;DHT22;4135;49.184;9.722;2023-02-15T02:44:41;21.00;45.50
8188;DHT22;4135;49.184;9.722;2023-02-15T02:47:22;21.00;45.50
8188;DHT22;4135;49.184;9.722;2023-02-15T02:50:03;21.00;45.50
8188;DHT22;4135;49.184;9.722;2023-02-15T02:52:45;21.00;45.50
8188;DHT22;4135;49.184;9.722;2023-02-15T02:55:20;21.00;45.50
8188;DHT22;4135;49.184;9.722;2023-02-15T03:00:30;21.00;45.50
8188;DHT22;4135;49.184;9.722;2023-02-15T03:03:05;21.00;45.50
8188;DHT22;4135;49.184;9.722;2023-02-15T03:05:39;21.00;45.50
8188;DHT22;4135;49.184;9.722;2023-02-15T03:08:11;21.00;45.50
8188;DHT22;4135;49.184;9.722;2023-02-15T03:10:41;21.00;45.50
8188;DHT22;4135;49.184;9.722;2023-02-15T03:13:11;21.00;45.50
8188;DHT22;4135;49.184;9.722;2023-02-15T03:15:42;21.00;45.50
8188;DHT22;4135;49.184;9.722;2023-02-15T03:18:35;21.00;45.50
8188;DHT22;4135;49.184;9.722;2023-02-15T03:21:07;21.00;45.50
8188;DHT22;4135;49.184;9.722;2023-02-15T03:23:38;21.00;45.50
8188;DHT22;4135;49.184;9.722;2023-02-15T03:26:08;21.00;45.50
8188;DHT22;4135;49.184;9.722;2023-02-15T03:28:45;21.00;45.50
8188;DHT22;4135;49.184;9.722;2023-02-15T03:31:16;20.90;45.50
8188;DHT22;4135;49.184;9.722;2023-02-15T03:33:55;20.90;45.50
8188;DHT22;4135;49.184;9.722;2023-02-15T03:36:57;21.00;45.50
8188;DHT22;4135;49.184;9.722;2023-02-15T03:42:14;20.90;45.50
8188;DHT22;4135;49.184;9.722;2023-02-15T03:45:09;20.90;45.50
8188;DHT22;4135;49.184;9.722;2023-02-15T03:47:44;20.90;45.50
8188;DHT22;4135;49.184;9.722;2023-02-15T03:53:07;20.80;45.40
8188;DHT22;4135;49.184;9.722;2023-02-15T03:55:38;20.90;45.50
8188;DHT22;4135;49.184;9.722;2023-02-15T03:58:08;20.80;45.40
8188;DHT22;4135;49.184;9.722;2023-02-15T04:00:59;20.80;45.40
8188;DHT22;4135;49.184;9.722;2023-02-15T04:04:17;20.80;45.40
8188;DHT22;4135;49.184;9.722;2023-02-15T04:06:48;21.00;45.60
8188;DHT22;4135;49.184;9.722;2023-02-15T04:09:18;20.80;45.50
8188;DHT22;4135;49.184;9.722;2023-02-15T04:12:06;20.80;45.40
8188;DHT22;4135;49.184;9.722;2023-02-15T04:14:36;20.90;45.40
8188;DHT22;4135;49.184;9.722;2023-02-15T04:17:24;20.90;45.40
8188;DHT22;4135;49.184;9.722;2023-02-15T04:19:53;20.90;45.40
8188;DHT22;4135;49.184;9.722;2023-02-15T04:22:41;20.90;45.40
8188;DHT22;4135;49.184;9.722;2023-02-15T04:25:29;20.80;45.30
8188;DHT22;4135;49.184;9.722;2023-02-15T04:27:59;20.80;45.30
8188;DHT22;4135;49.184;9.722;2023-02-15T04:30:29;20.90;45.40
8188;DHT22;4135;49.184;9.722;2023-02-15T04:32:58;20.80;45.30
8188;DHT22;4135;49.184;9.722;2023-02-15T04:35:28;20.80;45.30
8188;DHT22;4135;49.184;9.722;2023-02-15T04:37:57;20.90;45.30
8188;DHT22;4135;49.184;9.722;2023-02-15T04:40:27;20.90;45.30
8188;DHT22;4135;49.184;9.722;2023-02-15T04:42:56;20.80;45.20
8188;DHT22;4135;49.184;9.722;2023-02-15T04:45:26;20.80;45.20
8188;DHT22;4135;49.184;9.722;2023-02-15T04:47:56;20.80;45.20
8188;DHT22;4135;49.184;9.722;2023-02-15T04:50:25;20.80;45.20
8188;DHT22;4135;49.184;9.722;2023-02-15T04:52:55;20.80;45.20
8188;DHT22;4135;49.184;9.722;2023-02-15T04:55:24;20.80;45.20
8188;DHT22;4135;49.184;9.722;2023-02-15T04:57:55;20.90;45.30
8188;DHT22;4135;49.184;9.722;2023-02-15T05:00:25;20.90;45.30
8188;DHT22;4135;49.184;9.722;2023-02-15T05:02:54;20.80;45.10
8188;DHT22;4135;49.184;9.722;2023-02-15T05:05:24;20.80;45.10
8188;DHT22;4135;49.184;9.722;2023-02-15T05:07:53;20.80;45.20
8188;DHT22;4135;49.184;9.722;2023-02-15T05:10:23;20.80;45.20
8188;DHT22;4135;49.184;9.722;2023-02-15T05:12:53;20.80;45.20
8188;DHT22;4135;49.184;9.722;2023-02-15T05:15:22;20.80;45.10
8188;DHT22;4135;49.184;9.722;2023-02-15T05:17:51;20.90;45.20
8188;DHT22;4135;49.184;9.722;2023-02-15T05:20:21;20.90;45.30
8188;DHT22;4135;49.184;9.722;2023-02-15T05:22:54;20.90;45.20
8188;DHT22;4135;49.184;9.722;2023-02-15T05:25:23;20.90;45.20
8188;DHT22;4135;49.184;9.722;2023-02-15T05:28:25;20.90;45.20
8188;DHT22;4135;49.184;9.722;2023-02-15T05:31:12;20.90;45.20
8188;DHT22;4135;49.184;9.722;2023-02-15T05:33:43;20.90;45.10
8188;DHT22;4135;49.184;9.722;2023-02-15T05:36:13;20.90;45.10
8188;DHT22;4135;49.184;9.722;2023-02-15T05:38:43;20.90;45.10
8188;DHT22;4135;49.184;9.722;2023-02-15T05:41:12;20.90;45.10
8188;DHT22;4135;49.184;9.722;2023-02-15T05:43:42;20.90;45.10
8188;DHT22;4135;49.184;9.722;2023-02-15T05:46:12;20.90;45.10
8188;DHT22;4135;49.184;9.722;2023-02-15T05:48:41;20.90;45.10
8188;DHT22;4135;49.184;9.722;2023-02-15T05:51:12;21.00;45.10
8188;DHT22;4135;49.184;9.722;2023-02-15T05:53:46;21.00;45.10
8188;DHT22;4135;49.184;9.722;2023-02-15T05:56:15;21.00;45.00
8188;DHT22;4135;49.184;9.722;2023-02-15T05:58:45;21.00;45.00
8188;DHT22;4135;49.184;9.722;2023-02-15T06:01:16;21.00;45.00
8188;DHT22;4135;49.184;9.722;2023-02-15T06:03:46;21.00;45.00
8188;DHT22;4135;49.184;9.722;2023-02-15T06:06:16;21.00;45.00
8188;DHT22;4135;49.184;9.722;2023-02-15T06:08:45;21.10;45.00
8188;DHT22;4135;49.184;9.722;2023-02-15T06:11:15;21.00;45.00
8188;DHT22;4135;49.184;9.722;2023-02-15T06:13:44;21.10;45.10
8188;DHT22;4135;49.184;9.722;2023-02-15T06:16:14;21.10;45.50
8188;DHT22;4135;49.184;9.722;2023-02-15T06:18:45;21.10;45.20
